Time;durP1;ratioP1;P1;durP2;ratioP2;P2;SDS_P1;SDS_P2;PMS_P1;PMS_P2;Temp;Humidity;BMP_temperature;BMP_pressure;BME280_temperature;BME280_humidity;BME280_pressure;Samples;Min_cycle;Max_cycle;Signal;HPM_P1;HPM_P2
2021/01/28 00:01:11;;;;;;;21.52;5.43;;;12.10;99.90;;;11.27;100.00;101100.28;4152314;28;20037;-74
2021/01/28 00:03:12;;;;;;;13.82;4.70;;;12.10;99.90;;;11.30;100.00;101107.91;4134820;28;20042;-74
2021/01/28 00:05:14;;;;;;;19.15;4.05;;;12.00;99.90;;;11.25;100.00;101110.19;4134400;28;20425;-74
2021/01/28 00:07:14;;;;;;;10.98;3.17;;;12.00;99.90;;;11.19;100.00;101114.28;4152396;28;20058;-74
2021/01/28 00:09:15;;;;;;;14.75;4.43;;;12.00;99.90;;;11.19;100.00;101113.44;4135071;28;20022;-74
2021/01/28 00:11:16;;;;;;;12.23;3.28;;;12.00;99.90;;;11.17;100.00;101102.22;4135045;28;20065;-74
2021/01/28 00:13:17;;;;;;;10.48;3.45;;;12.00;99.90;;;11.17;100.00;101081.09;4134828;28;20125;-74
2021/01/28 00:15:24;;;;;;;14.60;4.05;;;11.90;99.90;;;11.20;100.00;101073.66;4151084;28;20087;-74
2021/01/28 00:17:25;;;;;;;16.52;3.00;;;12.00;99.90;;;11.15;100.00;101056.63;4119117;28;20397;-75
2021/01/28 00:19:26;;;;;;;12.80;3.38;;;11.90;99.90;;;11.14;100.00;101047.06;4134834;28;20038;-75
2021/01/28 00:21:27;;;;;;;15.75;3.97;;;11.90;99.90;;;11.08;100.00;101051.94;4142921;28;20046;-74
2021/01/28 00:23:28;;;;;;;15.13;3.80;;;11.90;99.90;;;11.11;100.00;101042.88;4145969;28;20124;-74
2021/01/28 00:25:29;;;;;;;15.80;3.80;;;11.90;99.90;;;11.16;100.00;101034.53;4134640;28;20026;-74
2021/01/28 00:27:29;;;;;;;17.30;4.97;;;12.00;99.90;;;11.17;100.00;101023.81;4135019;28;20030;-74
2021/01/28 00:29:31;;;;;;;17.45;5.38;;;12.00;99.90;;;11.09;100.00;101014.00;4111202;28;20015;-74
2021/01/28 00:31:32;;;;;;;17.65;4.45;;;12.00;99.90;;;11.07;100.00;101015.16;4134854;28;20026;-74
2021/01/28 00:33:33;;;;;;;16.00;3.63;;;11.90;99.90;;;11.08;100.00;101014.16;4134843;28;20029;-74
2021/01/28 00:35:47;;;;;;;16.38;3.53;;;11.90;99.90;;;11.10;100.00;101039.44;4135887;28;20415;-74
2021/01/28 00:37:48;;;;;;;9.95;2.95;;;11.90;99.90;;;11.05;100.00;101028.50;4118913;28;20042;-74
2021/01/28 00:39:49;;;;;;;13.40;3.40;;;11.90;99.90;;;11.07;100.00;101017.78;4102627;29;20039;-74
2021/01/28 00:41:50;;;;;;;12.35;3.47;;;11.90;99.90;;;11.02;100.00;101025.34;4102505;29;20497;-75
2021/01/28 00:43:50;;;;;;;17.65;4.35;;;11.80;99.90;;;11.04;100.00;101018.09;4134708;28;20060;-74
2021/01/28 00:45:52;;;;;;;16.92;4.57;;;11.80;99.90;;;10.98;100.00;101037.19;4134932;28;20026;-75
2021/01/28 00:47:53;;;;;;;15.55;3.00;;;11.80;99.90;;;10.90;100.00;101024.72;4134725;28;20022;-74
2021/01/28 00:49:54;;;;;;;14.52;4.05;;;11.80;99.90;;;10.92;100.00;101019.31;4118182;28;20023;-74
2021/01/28 00:51:55;;;;;;;11.77;3.30;;;11.80;99.90;;;10.95;100.00;101008.44;4102802;29;20054;-75
2021/01/28 00:53:56;;;;;;;10.25;3.05;;;11.80;99.90;;;10.93;100.00;101021.78;4135807;28;20061;-74
2021/01/28 00:55:57;;;;;;;9.73;3.47;;;11.80;99.90;;;10.96;100.00;101016.19;4118542;28;20115;-75
2021/01/28 00:57:58;;;;;;;10.70;3.58;;;11.80;99.90;;;10.93;100.00;101016.50;4118401;28;20574;-74
2021/01/28 00:59:59;;;;;;;10.10;3.15;;;11.80;99.90;;;10.92;100.00;101009.59;4118581;28;20023;-74
2021/01/28 01:01:59;;;;;;;8.90;2.50;;;11.80;99.90;;;10.93;100.00;101019.16;4118747;28;20474;-74
2021/01/28 01:04:00;;;;;;;7.55;2.35;;;11.80;99.90;;;11.01;100.00;101024.53;4118426;28;20031;-74
2021/01/28 01:06:01;;;;;;;6.65;2.03;;;11.80;99.90;;;10.99;100.00;101026.47;4118118;28;20031;-74
2021/01/28 01:08:15;;;;;;;5.53;1.95;;;11.80;99.90;;;11.02;100.00;101026.16;4118732;28;20027;-74
2021/01/28 01:10:43;;;;;;;8.70;2.40;;;11.80;99.90;;;11.04;100.00;101024.22;4118279;28;20031;-74
2021/01/28 01:12:44;;;;;;;6.82;2.00;;;11.80;99.90;;;11.04;100.00;101018.94;4121241;28;20110;-74
2021/01/28 01:14:45;;;;;;;6.63;2.20;;;11.90;99.90;;;11.04;100.00;101018.09;4118431;28;20104;-74
2021/01/28 01:16:46;;;;;;;10.15;2.38;;;11.90;99.90;;;11.09;100.00;100999.97;4121654;28;20027;-74
2021/01/28 01:18:47;;;;;;;4.20;1.50;;;11.80;99.90;;;11.07;100.00;101026.56;4137750;28;20117;-74
2021/01/28 01:20:48;;;;;;;4.45;1.70;;;11.80;99.90;;;11.01;100.00;101013.97;4138437;28;20047;-74
2021/01/28 01:22:50;;;;;;;7.78;2.15;;;11.90;99.90;;;11.02;100.00;101010.31;4137574;28;20073;-74
2021/01/28 01:24:50;;;;;;;3.75;1.70;;;11.90;99.90;;;11.07;100.00;100997.50;4137709;28;20029;-74
2021/01/28 01:26:51;;;;;;;6.22;1.60;;;11.90;99.90;;;11.03;100.00;100998.78;4105349;29;20035;-75
2021/01/28 01:28:52;;;;;;;4.90;1.70;;;11.90;99.90;;;11.03;100.00;100988.22;4128424;28;20050;-74
2021/01/28 01:30:54;;;;;;;4.60;1.20;;;11.90;99.90;;;11.06;100.00;100973.88;4153965;28;20053;-74
2021/01/28 01:32:55;;;;;;;5.70;1.67;;;11.90;99.90;;;11.05;100.00;100978.34;4154029;28;20026;-74
2021/01/28 01:34:56;;;;;;;4.22;1.30;;;11.90;99.90;;;11.04;100.00;100970.59;4137261;28;20446;-74
2021/01/28 01:36:57;;;;;;;2.97;1.50;;;11.90;99.90;;;11.11;100.00;100972.44;4154854;28;20112;-74
2021/01/28 01:38:57;;;;;;;3.30;1.52;;;12.00;99.90;;;11.11;100.00;100963.69;4137483;28;20045;-74
2021/01/28 01:40:59;;;;;;;4.38;2.10;;;11.90;99.90;;;11.06;100.00;100958.88;4153641;28;20057;-74
2021/01/28 01:43:03;;;;;;;3.80;1.52;;;11.90;99.90;;;11.03;100.00;100951.28;4137473;28;20030;-74
2021/01/28 01:45:08;;;;;;;3.75;1.50;;;11.80;99.90;;;11.04;100.00;100950.28;4154635;28;20037;-74
2021/01/28 01:47:20;;;;;;;5.13;1.73;;;11.80;99.90;;;11.07;100.00;100955.28;4154812;28;20076;-74
2021/01/28 01:49:24;;;;;;;3.80;1.77;;;11.90;99.90;;;11.08;100.00;100938.44;4154536;28;20444;-74
2021/01/28 01:51:31;;;;;;;3.83;1.55;;;11.90;99.90;;;11.10;100.00;100939.13;4154616;28;20109;-74
2021/01/28 01:53:55;;;;;;;1.90;1.20;;;11.90;99.90;;;11.15;100.00;100930.72;4154893;28;20037;-74
2021/01/28 01:56:16;;;;;;;2.80;1.50;;;11.90;99.90;;;11.14;100.00;100938.81;4123420;28;20076;-74
2021/01/28 01:58:49;;;;;;;7.22;2.70;;;11.90;99.90;;;11.15;100.00;100929.88;4121886;28;20030;-75
2021/01/28 02:00:50;;;;;;;5.00;1.83;;;11.90;99.90;;;11.03;100.00;100910.84;4140119;28;20045;-74
2021/01/28 02:03:00;;;;;;;2.67;1.75;;;11.90;99.90;;;11.11;100.00;100916.16;4154437;28;20515;-74
2021/01/28 02:05:17;;;;;;;4.63;1.88;;;11.90;99.90;;;11.08;100.00;100914.66;4154354;28;20022;-74
2021/01/28 02:07:22;;;;;;;4.75;2.40;;;11.90;99.90;;;11.09;100.00;100921.63;4137786;28;20102;-74
2021/01/28 02:09:23;;;;;;;5.05;2.10;;;11.90;99.90;;;11.04;100.00;100913.34;4136979;28;20225;-74
2021/01/28 02:11:26;;;;;;;3.97;2.03;;;11.90;99.90;;;11.07;100.00;100907.75;4154531;28;20093;-74
2021/01/28 02:13:27;;;;;;;3.45;1.75;;;11.90;99.90;;;11.01;100.00;100911.00;4154350;28;20044;-75
2021/01/28 02:15:29;;;;;;;3.78;1.52;;;11.90;99.90;;;11.08;100.00;100916.47;4154453;28;20501;-74
2021/01/28 02:17:30;;;;;;;5.35;3.20;;;11.90;99.90;;;11.05;100.00;100919.47;4136967;28;20482;-74
2021/01/28 02:19:52;;;;;;;5.95;2.20;;;11.90;99.90;;;11.06;100.00;100926.38;4136906;28;20085;-74
2021/01/28 02:21:53;;;;;;;8.48;2.97;;;11.90;99.90;;;11.07;100.00;100928.88;4142482;28;20038;-75
2021/01/28 02:24:12;;;;;;;9.00;2.00;;;11.90;99.90;;;11.09;100.00;100920.78;4151648;28;20068;-74
2021/01/28 02:26:13;;;;;;;8.93;3.30;;;11.90;99.90;;;11.00;100.00;100913.78;4136693;28;20034;-74
2021/01/28 02:28:17;;;;;;;10.57;2.30;;;11.90;99.90;;;10.97;100.00;100911.47;4152484;28;20539;-74
2021/01/28 02:30:26;;;;;;;7.15;2.50;;;11.90;99.90;;;10.97;100.00;100907.00;4139633;28;20520;-74
2021/01/28 02:32:26;;;;;;;12.27;3.65;;;11.80;99.90;;;11.07;100.00;100920.94;4120531;28;20031;-75
2021/01/28 02:34:27;;;;;;;10.35;2.85;;;11.90;99.90;;;11.01;100.00;100902.25;4154067;28;20033;-74
2021/01/28 02:36:40;;;;;;;13.25;2.97;;;11.90;99.90;;;11.04;100.00;100902.78;4154274;28;20535;-75
2021/01/28 02:38:42;;;;;;;8.65;2.70;;;11.90;99.90;;;11.05;100.00;100891.22;4136901;28;20088;-75
2021/01/28 02:40:43;;;;;;;8.65;2.92;;;11.90;99.90;;;11.10;100.00;100878.41;4136473;28;20074;-75
2021/01/28 02:42:44;;;;;;;8.90;3.15;;;11.90;99.90;;;11.06;100.00;100858.56;4152859;28;20030;-74
2021/01/28 02:44:45;;;;;;;9.35;3.30;;;11.90;99.90;;;11.04;100.00;100871.09;4152750;28;20064;-75
2021/01/28 02:46:46;;;;;;;7.93;2.03;;;11.90;99.90;;;11.09;100.00;100871.47;4136310;28;20580;-75
2021/01/28 02:48:49;;;;;;;9.52;2.95;;;11.90;99.90;;;11.04;100.00;100865.81;4154188;28;20030;-75
2021/01/28 02:50:50;;;;;;;12.48;2.35;;;11.90;99.90;;;11.04;100.00;100878.19;4153537;28;20060;-75
2021/01/28 02:52:56;;;;;;;10.45;2.83;;;11.90;99.90;;;11.06;100.00;100890.25;4154002;28;20059;-75
2021/01/28 02:54:57;;;;;;;10.82;2.65;;;11.90;99.90;;;11.05;100.00;100899.13;4152419;28;20076;-75
2021/01/28 02:56:58;;;;;;;8.93;2.65;;;11.90;99.90;;;11.04;100.00;100888.75;4153800;28;20030;-74
2021/01/28 02:59:00;;;;;;;9.93;2.55;;;11.90;99.90;;;11.06;100.00;100874.41;4136267;28;20034;-74
2021/01/28 03:01:02;;;;;;;14.85;3.13;;;11.90;99.90;;;11.12;100.00;100886.16;4153563;28;20029;-74
2021/01/28 03:03:09;;;;;;;13.45;2.70;;;11.90;99.90;;;11.07;100.00;100870.78;4136213;28;20034;-74
2021/01/28 03:05:10;;;;;;;18.27;3.78;;;12.00;99.90;;;11.03;100.00;100863.31;4153462;28;20026;-75
2021/01/28 03:07:14;;;;;;;14.02;3.25;;;11.90;99.90;;;11.08;100.00;100875.06;4153554;28;20020;-74
2021/01/28 03:09:15;;;;;;;13.98;3.13;;;11.90;99.90;;;11.13;100.00;100882.53;4136044;28;20616;-74
2021/01/28 03:11:16;;;;;;;12.07;2.92;;;11.90;99.90;;;11.06;100.00;100879.69;4152408;28;20026;-74
2021/01/28 03:13:17;;;;;;;20.38;4.00;;;11.90;99.90;;;11.06;100.00;100879.69;4136081;28;20069;-74
2021/01/28 03:15:25;;;;;;;15.73;3.55;;;11.90;99.90;;;11.08;100.00;100879.50;4153375;28;20404;-75
2021/01/28 03:17:26;;;;;;;19.48;4.22;;;12.00;99.90;;;11.02;100.00;100872.25;4136449;28;20057;-75
2021/01/28 03:19:28;;;;;;;23.45;4.18;;;11.90;99.90;;;11.06;100.00;100882.31;4135987;28;20076;-75
2021/01/28 03:21:29;;;;;;;20.17;4.28;;;11.90;99.90;;;11.01;100.00;100878.50;4143554;28;20046;-74
2021/01/28 03:23:30;;;;;;;20.95;5.63;;;11.90;99.90;;;11.03;100.00;100874.72;4124410;28;20058;-74
2021/01/28 03:25:31;;;;;;;22.50;4.50;;;11.90;99.90;;;11.06;100.00;100863.84;4135694;28;20033;-74
2021/01/28 03:27:32;;;;;;;24.73;5.80;;;11.90;99.90;;;10.99;100.00;100867.28;4119847;28;20027;-74
2021/01/28 03:29:33;;;;;;;23.77;4.45;;;11.90;99.90;;;11.07;100.00;100876.06;4123916;28;20031;-74
2021/01/28 03:31:34;;;;;;;25.90;6.15;;;11.90;99.90;;;11.00;100.00;100868.91;4119664;28;20468;-74
2021/01/28 03:33:35;;;;;;;22.15;4.80;;;11.90;99.90;;;11.00;100.00;100868.91;4119589;28;20122;-74
2021/01/28 03:35:37;;;;;;;27.27;6.57;;;11.90;99.90;;;11.03;100.00;100868.59;4119471;28;20066;-74
2021/01/28 03:37:37;;;;;;;26.13;5.53;;;11.90;99.90;;;11.05;100.00;100864.81;4119762;28;20580;-75
2021/01/28 03:39:38;;;;;;;21.17;4.55;;;11.90;99.90;;;11.00;100.00;100861.00;4118427;28;20031;-74
2021/01/28 03:41:39;;;;;;;27.20;4.85;;;11.90;99.90;;;11.01;100.00;100876.69;4136732;28;20034;-74
2021/01/28 03:43:40;;;;;;;20.55;4.57;;;11.90;99.90;;;11.04;100.00;100870.28;4135553;28;20058;-75
2021/01/28 03:45:41;;;;;;;27.25;4.90;;;11.90;99.90;;;11.05;100.00;100851.63;4119449;28;20035;-74
2021/01/28 03:47:42;;;;;;;19.20;4.18;;;11.90;99.90;;;11.07;100.00;100827.72;4119542;28;20062;-74
2021/01/28 03:49:43;;;;;;;21.83;4.00;;;11.90;99.90;;;11.14;100.00;100827.94;4135242;28;20030;-74
2021/01/28 03:51:44;;;;;;;18.98;3.50;;;11.90;99.90;;;11.14;100.00;100823.44;4103413;29;20062;-74
2021/01/28 03:53:45;;;;;;;16.17;4.28;;;12.00;99.90;;;11.13;100.00;100826.25;4135471;28;20045;-74
2021/01/28 03:55:46;;;;;;;13.32;3.10;;;11.90;99.90;;;11.18;100.00;100821.31;4135325;28;20030;-74
2021/01/28 03:57:49;;;;;;;17.50;2.85;;;11.90;99.90;;;11.09;100.00;100816.00;4119225;28;20050;-74
2021/01/28 03:59:50;;;;;;;17.15;3.75;;;11.90;99.90;;;11.18;100.00;100850.38;4103266;28;20455;-74
2021/01/28 04:01:51;;;;;;;14.60;3.10;;;12.00;99.90;;;11.14;100.00;100844.56;4136462;28;20053;-75
2021/01/28 04:03:52;;;;;;;7.35;1.95;;;12.00;99.90;;;11.16;100.00;100833.88;4119089;28;20103;-74
2021/01/28 04:05:53;;;;;;;7.22;2.10;;;12.00;99.90;;;11.11;100.00;100832.50;4118937;28;20049;-74
2021/01/28 04:07:54;;;;;;;6.70;2.08;;;12.00;99.90;;;11.18;100.00;100831.88;4136369;28;20033;-74
2021/01/28 04:09:55;;;;;;;7.75;3.40;;;12.00;99.90;;;11.11;100.00;100823.75;4119367;28;20035;-74
2021/01/28 04:11:56;;;;;;;6.05;2.15;;;12.00;99.90;;;11.07;100.00;100804.78;4119080;28;20115;-74
2021/01/28 04:13:57;;;;;;;6.15;1.67;;;12.00;99.90;;;11.10;100.00;100795.72;4136024;28;20031;-74
2021/01/28 04:15:58;;;;;;;10.88;2.53;;;12.00;99.90;;;11.11;100.00;100763.88;4119021;28;20073;-74
2021/01/28 04:17:59;;;;;;;5.28;1.98;;;12.00;99.90;;;11.16;100.00;100720.34;4136567;28;20035;-74
2021/01/28 04:20:00;;;;;;;5.82;1.73;;;12.00;99.90;;;11.13;100.00;100688.97;4134700;28;20069;-74
2021/01/28 04:22:01;;;;;;;8.88;2.70;;;11.90;99.90;;;11.08;100.00;100686.81;4118931;28;20027;-74
2021/01/28 04:24:04;;;;;;;8.32;2.33;;;11.90;99.90;;;11.05;100.00;100713.56;4150773;28;20646;-74
2021/01/28 04:26:05;;;;;;;6.38;2.55;;;11.90;99.90;;;11.10;100.00;100770.16;4152425;28;20029;-74
2021/01/28 04:28:07;;;;;;;5.72;1.80;;;11.90;99.90;;;11.10;100.00;100750.84;4134933;28;20490;-74
2021/01/28 04:30:13;;;;;;;3.30;1.30;;;11.90;99.90;;;11.11;100.00;100724.28;4139769;28;20030;-74
2021/01/28 04:32:14;;;;;;;5.50;1.55;;;11.90;99.90;;;11.11;100.00;100749.84;4118960;28;20114;-74
2021/01/28 04:34:14;;;;;;;3.65;1.90;;;11.90;99.90;;;11.02;100.00;100758.75;4118432;28;20034;-74
2021/01/28 04:36:16;;;;;;;3.47;1.40;;;11.90;99.90;;;11.08;100.00;100773.91;4135953;28;20045;-74
2021/01/28 04:38:16;;;;;;;3.10;1.20;;;11.90;99.90;;;11.03;100.00;100774.41;4118615;28;20035;-74
2021/01/28 04:40:51;;;;;;;4.80;1.10;;;11.90;99.90;;;11.05;100.00;100769.78;4136011;28;20040;-74
2021/01/28 04:42:53;;;;;;;4.65;1.27;;;11.90;99.90;;;11.10;100.00;100770.16;4102906;28;20087;-74
2021/01/28 04:44:54;;;;;;;4.65;1.30;;;11.90;99.90;;;11.08;100.00;100764.19;4134750;28;20033;-74
2021/01/28 04:46:56;;;;;;;2.72;1.30;;;12.00;99.90;;;11.13;100.00;100770.81;4118815;28;20541;-74
2021/01/28 04:48:59;;;;;;;4.10;1.35;;;12.00;99.90;;;11.14;100.00;100769.84;4118733;28;20049;-74
2021/01/28 04:51:03;;;;;;;4.47;1.73;;;12.00;99.90;;;11.19;100.00;100776.31;4118204;28;20034;-74
2021/01/28 04:53:35;;;;;;;5.60;1.67;;;12.00;99.90;;;11.23;100.00;100763.63;4102720;28;20035;-74
2021/01/28 04:55:46;;;;;;;7.15;1.40;;;12.00;99.90;;;11.20;100.00;100763.94;4118586;28;20035;-74
2021/01/28 04:57:47;;;;;;;6.38;1.60;;;12.00;99.90;;;11.18;100.00;100768.53;4118470;28;20038;-75
2021/01/28 04:59:53;;;;;;;4.20;1.40;;;12.00;99.90;;;11.16;100.00;100775.78;4134508;28;20038;-75
2021/01/28 05:01:54;;;;;;;6.55;1.48;;;12.00;99.90;;;11.20;100.00;100779.78;4118395;28;20034;-75
2021/01/28 05:03:57;;;;;;;8.80;1.52;;;12.00;99.90;;;11.16;100.00;100773.16;4134619;28;20034;-74
2021/01/28 05:06:00;;;;;;;6.55;1.75;;;12.00;99.90;;;11.15;100.00;100738.00;4134454;28;20088;-74
2021/01/28 05:08:01;;;;;;;6.70;1.85;;;12.10;99.90;;;11.15;100.00;100755.63;4134787;28;20026;-74
2021/01/28 05:10:24;;;;;;;8.93;2.08;;;12.00;99.90;;;11.19;100.00;100741.97;4135965;28;20093;-74
2021/01/28 05:12:25;;;;;;;7.40;2.63;;;12.10;99.90;;;11.19;100.00;100731.41;4119746;28;20061;-74
2021/01/28 05:14:31;;;;;;;7.22;2.85;;;12.10;99.90;;;11.19;100.00;100736.69;4134426;28;20026;-74
2021/01/28 05:16:47;;;;;;;10.48;2.60;;;11.90;99.90;;;11.21;100.00;100747.91;4118616;28;20035;-74
2021/01/28 05:19:05;;;;;;;7.05;2.72;;;12.10;99.90;;;11.25;100.00;100751.06;4135543;28;20069;-74
2021/01/28 05:21:20;;;;;;;16.73;3.20;;;12.10;99.90;;;11.27;100.00;100754.38;4118444;28;20062;-74
2021/01/28 05:23:40;;;;;;;12.32;3.45;;;12.10;99.90;;;11.26;100.00;100747.44;4118402;28;20514;-74
2021/01/28 05:25:43;;;;;;;9.73;2.83;;;12.10;99.90;;;11.24;100.00;100747.59;4134568;28;20121;-74
2021/01/28 05:27:44;;;;;;;10.85;2.75;;;12.10;99.90;;;11.21;100.00;100736.53;4135699;28;20528;-74
2021/01/28 05:29:47;;;;;;;19.50;4.05;;;12.10;99.90;;;11.30;100.00;100746.13;4132187;28;20023;-74
2021/01/28 05:31:50;;;;;;;10.77;2.75;;;12.20;99.90;;;11.33;100.00;100737.88;4134386;28;20034;-74
2021/01/28 05:33:51;;;;;;;14.80;3.50;;;12.20;99.90;;;11.30;100.00;100738.19;4150746;28;20053;-74
2021/01/28 05:36:09;;;;;;;17.25;4.28;;;12.20;99.90;;;11.36;100.00;100748.13;4151640;28;20038;-74
2021/01/28 05:38:19;;;;;;;11.40;2.70;;;12.20;99.90;;;11.39;100.00;100739.88;4150419;28;20174;-74
2021/01/28 05:40:26;;;;;;;8.95;1.90;;;12.20;99.90;;;11.35;100.00;100751.78;4150467;28;20041;-75
2021/01/28 05:42:29;;;;;;;10.23;2.28;;;12.20;99.90;;;11.38;100.00;100754.09;4134341;28;20033;-74
2021/01/28 05:44:38;;;;;;;9.40;2.85;;;12.20;99.90;;;11.30;100.00;100748.75;4118190;28;20031;-74
2021/01/28 05:46:39;;;;;;;7.85;1.92;;;12.20;99.90;;;11.28;100.00;100748.09;4118022;28;20497;-75
2021/01/28 05:48:40;;;;;;;9.32;2.83;;;12.20;99.90;;;11.37;100.00;100744.50;4134208;28;20065;-74
2021/01/28 05:50:41;;;;;;;6.82;2.33;;;12.20;99.90;;;11.37;100.00;100758.53;4133896;28;20156;-75
2021/01/28 05:52:42;;;;;;;10.05;2.97;;;12.20;99.90;;;11.46;100.00;100760.22;4134140;28;20115;-75
2021/01/28 05:54:43;;;;;;;9.80;3.35;;;12.30;99.90;;;11.42;100.00;100740.38;4134215;28;20064;-75
2021/01/28 05:57:16;;;;;;;7.95;2.28;;;12.30;99.90;;;11.42;100.00;100758.88;4118063;28;20094;-75
2021/01/28 05:59:32;;;;;;;6.78;2.22;;;12.30;99.90;;;11.46;100.00;100756.75;4135251;28;20075;-74
2021/01/28 06:02:14;;;;;;;7.82;2.05;;;12.30;99.90;;;11.50;100.00;100761.53;4135435;28;20445;-74
2021/01/28 06:04:43;;;;;;;5.63;2.55;;;12.30;99.90;;;11.47;100.00;100743.38;4125861;28;20046;-72
2021/01/28 06:07:25;;;;;;;9.68;2.03;;;12.40;99.90;;;11.53;100.00;100736.59;4128161;28;20449;-74
2021/01/28 06:10:11;;;;;;;8.85;2.40;;;12.40;99.90;;;11.57;100.00;100740.59;4153054;28;20029;-74
2021/01/28 06:13:06;;;;;;;13.07;2.00;;;12.40;99.90;;;11.58;100.00;100745.72;4109200;28;20125;-74
2021/01/28 06:15:52;;;;;;;9.00;2.13;;;12.40;99.90;;;11.55;100.00;100738.13;4154118;28;20033;-74
2021/01/28 06:18:31;;;;;;;;;;;12.40;99.90;;;11.56;100.00;100744.19;4131136;28;20124;-74
2021/01/28 06:20:56;;;;;;;5.97;2.20;;;12.50;99.90;;;11.58;100.00;100740.44;4135716;28;20265;-74
2021/01/28 06:23:37;;;;;;;9.15;2.53;;;12.40;99.90;;;11.60;100.00;100750.81;4121735;28;20042;-74
2021/01/28 06:26:23;;;;;;;5.78;2.35;;;12.40;99.90;;;11.60;100.00;100759.59;4121618;28;20130;-74
2021/01/28 06:28:39;;;;;;;7.05;2.33;;;12.40;99.90;;;11.63;100.00;100763.72;4078240;28;20430;-74
2021/01/28 06:31:10;;;;;;;10.25;2.33;;;12.40;99.90;;;11.59;100.00;100749.16;4109908;28;20383;-74
2021/01/28 06:33:41;;;;;;;7.55;2.42;;;12.40;99.90;;;11.60;100.00;100745.53;4121718;28;20455;-73
2021/01/28 06:36:33;;;;;;;10.43;3.42;;;12.50;99.90;;;11.57;100.00;100753.78;4121449;28;20079;-74
2021/01/28 06:39:04;;;;;;;9.43;3.47;;;12.40;99.90;;;11.61;100.00;100753.31;4091781;28;20041;-74
2021/01/28 06:41:15;;;;;;;8.13;2.00;;;12.40;99.90;;;11.59;100.00;100757.09;4121622;28;20065;-74
2021/01/28 06:43:39;;;;;;;8.48;2.42;;;12.50;99.90;;;11.58;100.00;100764.22;4104791;28;20039;-73
2021/01/28 06:46:21;;;;;;;13.25;2.50;;;12.50;99.90;;;11.58;100.00;100771.31;4120456;28;20121;-72
2021/01/28 06:48:37;;;;;;;10.88;2.42;;;12.40;99.90;;;11.58;100.00;100766.03;4082130;28;20038;-74
2021/01/28 06:50:54;;;;;;;8.27;2.65;;;12.50;99.90;;;11.64;100.00;100771.50;4120055;28;20031;-74
2021/01/28 06:53:10;;;;;;;7.43;2.00;;;12.50;99.90;;;11.54;100.00;100756.75;4120226;28;20061;-74
2021/01/28 06:55:38;;;;;;;8.45;2.17;;;12.40;99.90;;;11.56;100.00;100765.34;4121375;28;20050;-74
2021/01/28 06:58:08;;;;;;;4.68;1.90;;;12.40;99.90;;;11.60;100.00;100769.31;4121277;28;20033;-75
2021/01/28 07:00:24;;;;;;;8.38;2.03;;;12.40;99.90;;;11.53;100.00;100758.56;4121274;28;20027;-75
2021/01/28 07:03:08;;;;;;;9.18;3.10;;;12.40;99.90;;;11.50;100.00;100755.41;4121251;28;20037;-74
2021/01/28 07:05:32;;;;;;;6.80;2.03;;;12.40;99.90;;;11.49;100.00;100761.72;4104991;28;20038;-75
2021/01/28 07:07:55;;;;;;;4.13;1.90;;;12.30;99.90;;;11.47;100.00;100745.16;4119968;28;20114;-75
2021/01/28 07:10:13;;;;;;;5.07;1.95;;;12.30;99.90;;;11.52;100.00;100766.66;4104792;28;20087;-75
2021/01/28 07:12:20;;;;;;;4.35;1.75;;;12.40;99.90;;;11.50;100.00;100771.25;4104796;28;20023;-74
2021/01/28 07:14:22;;;;;;;8.48;2.78;;;12.40;99.90;;;11.56;100.00;100770.63;4104147;28;20510;-75
2021/01/28 07:16:39;;;;;;;4.30;1.40;;;12.40;99.90;;;11.51;100.00;100755.28;4119961;28;20027;-75
2021/01/28 07:18:48;;;;;;;7.30;1.58;;;12.30;99.90;;;11.53;100.00;100765.66;4119782;28;20117;-75
2021/01/28 07:21:06;;;;;;;5.43;1.58;;;12.40;99.90;;;11.53;100.00;100779.69;4109398;28;20038;-74
2021/01/28 07:23:27;;;;;;;3.88;1.65;;;12.40;99.90;;;11.54;100.00;100777.88;4120140;28;20039;-74
2021/01/28 07:25:36;;;;;;;7.90;1.77;;;12.40;99.90;;;11.50;100.00;100784.47;4135712;28;20026;-75
2021/01/28 07:27:59;;;;;;;7.07;2.45;;;12.40;99.90;;;11.50;100.00;100787.94;4119901;28;20402;-74
2021/01/28 07:30:00;;;;;;;7.68;2.08;;;12.40;99.90;;;11.53;100.00;100792.91;4115287;28;20019;-74
2021/01/28 07:32:04;;;;;;;6.35;2.10;;;12.40;99.90;;;11.56;100.00;100786.47;4119454;28;20453;-75
2021/01/28 07:34:11;;;;;;;5.28;1.77;;;12.40;99.90;;;11.49;100.00;100809.25;4119713;28;20050;-74
2021/01/28 07:36:24;;;;;;;4.97;1.90;;;12.40;99.90;;;11.54;100.00;100804.31;4119558;28;20034;-74
2021/01/28 07:38:30;;;;;;;9.65;1.92;;;12.40;99.90;;;11.53;100.00;100798.19;4135259;28;20113;-74
2021/01/28 07:41:07;;;;;;;7.40;2.00;;;12.40;99.90;;;11.53;100.00;100790.25;4136746;28;20594;-74
2021/01/28 07:43:08;;;;;;;7.53;1.98;;;12.40;99.90;;;11.50;100.00;100797.69;4136327;28;20445;-74
2021/01/28 07:45:33;;;;;;;9.68;2.22;;;12.40;99.90;;;11.51;100.00;100796.69;4136529;28;20042;-74
2021/01/28 07:47:34;;;;;;;11.43;2.42;;;12.40;99.90;;;11.55;100.00;100811.25;4119589;28;20026;-74
2021/01/28 07:49:36;;;;;;;9.63;3.20;;;12.40;99.90;;;11.53;100.00;100810.56;4136239;28;20026;-74
2021/01/28 07:51:41;;;;;;;15.05;2.75;;;12.40;99.90;;;11.53;100.00;100818.50;4103330;29;20463;-75
2021/01/28 07:53:51;;;;;;;14.43;3.05;;;12.40;99.90;;;11.55;100.00;100813.91;4119540;28;20459;-74
2021/01/28 07:55:52;;;;;;;13.25;3.13;;;12.40;99.90;;;11.55;100.00;100811.25;4119436;28;20027;-74
2021/01/28 07:57:54;;;;;;;10.27;2.75;;;12.40;99.90;;;11.57;100.00;100811.91;4136297;28;20053;-75
2021/01/28 08:00:18;;;;;;;13.50;3.63;;;12.40;99.90;;;11.49;100.00;100827.75;4119309;28;20086;-75
2021/01/28 08:02:27;;;;;;;10.63;2.63;;;12.40;99.90;;;11.56;100.00;100826.94;4119227;28;20424;-74
2021/01/28 08:04:40;;;;;;;13.15;3.67;;;12.40;99.90;;;11.53;100.00;100829.91;4135842;28;20070;-75
2021/01/28 08:06:42;;;;;;;13.10;3.22;;;12.40;99.90;;;11.55;100.00;100827.94;4136297;28;20085;-74
2021/01/28 08:08:43;;;;;;;14.55;2.75;;;12.40;99.90;;;11.52;100.00;100824.78;4118827;28;20065;-74
2021/01/28 08:10:45;;;;;;;12.45;3.38;;;12.40;99.90;;;11.54;100.00;100836.84;4136108;28;20034;-75
2021/01/28 08:13:00;;;;;;;14.55;3.20;;;12.40;99.90;;;11.52;100.00;100840.63;4119019;28;20057;-75
2021/01/28 08:15:14;;;;;;;12.82;4.15;;;12.40;99.90;;;11.50;100.00;100835.50;4119210;28;20498;-74
2021/01/28 08:17:21;;;;;;;8.85;2.85;;;12.40;99.90;;;11.54;100.00;100833.38;4119596;28;20026;-74
2021/01/28 08:19:27;;;;;;;9.15;3.00;;;12.40;99.90;;;11.57;100.00;100854.19;4119004;28;20178;-74
2021/01/28 08:21:29;;;;;;;7.18;2.58;;;12.40;99.90;;;11.53;100.00;100843.09;4135802;28;20106;-74
2021/01/28 08:23:31;;;;;;;7.15;2.63;;;12.50;99.90;;;11.54;100.00;100841.28;4134680;28;20038;-74
2021/01/28 08:25:49;;;;;;;12.15;3.97;;;12.40;99.90;;;11.59;100.00;100854.84;4135399;28;20030;-74
2021/01/28 08:27:50;;;;;;;12.65;3.38;;;12.40;99.90;;;11.53;100.00;100858.13;4120251;28;20030;-74
2021/01/28 08:30:07;;;;;;;12.07;3.78;;;12.50;99.90;;;11.56;100.00;100857.81;4122790;28;20393;-75
2021/01/28 08:32:30;;;;;;;13.45;3.70;;;12.50;99.90;;;11.59;100.00;100850.38;4134578;28;20109;-74
2021/01/28 08:34:33;;;;;;;16.35;3.15;;;12.50;99.90;;;11.57;100.00;100856.81;4118783;28;20034;-75
2021/01/28 08:37:04;;;;;;;11.30;3.90;;;12.50;99.90;;;11.58;100.00;100854.03;4102622;29;20031;-74
2021/01/28 08:39:22;;;;;;;14.18;3.88;;;12.50;99.90;;;11.57;100.00;100856.81;4118356;28;20069;-75
2021/01/28 08:41:27;;;;;;;10.60;3.00;;;12.50;99.90;;;11.66;100.00;100866.44;4119838;28;20110;-74
2021/01/28 08:43:29;;;;;;;16.55;4.05;;;12.50;99.90;;;11.59;100.00;100850.38;4135756;28;20109;-74
2021/01/28 08:45:30;;;;;;;9.90;3.63;;;12.50;99.90;;;11.59;100.00;100854.84;4118610;28;20414;-74